createdAt,value
2018-03-30T00:02:22.100Z,17.64
2018-03-30T00:04:48.126Z,17.62
2018-03-30T00:07:14.090Z,17.57
2018-03-30T00:09:46.053Z,17.66
2018-03-30T00:12:12.019Z,17.68
2018-03-30T00:14:38.945Z,17.63
2018-03-30T00:17:04.911Z,17.66
2018-03-30T00:19:30.887Z,17.66
2018-03-30T00:21:56.853Z,17.53
2018-03-30T00:24:22.815Z,17.58
2018-03-30T00:26:49.770Z,17.66
2018-03-30T00:29:15.731Z,17.72
2018-03-30T00:31:41.700Z,17.65
2018-03-30T00:34:08.628Z,17.72
2018-03-30T00:36:40.697Z,17.74
2018-03-30T00:39:07.486Z,17.49
2018-03-30T00:41:33.451Z,17.55
2018-03-30T00:43:59.471Z,17.50
2018-03-30T00:46:25.435Z,17.57
2018-03-30T00:48:51.451Z,17.56
2018-03-30T00:51:17.414Z,17.57
2018-03-30T00:53:46.389Z,17.57
2018-03-30T00:56:12.363Z,17.52
2018-03-30T00:58:38.332Z,17.58
2018-03-30T01:01:04.314Z,17.62
2018-03-30T01:03:30.318Z,17.50
2018-03-30T01:05:56.287Z,17.58
2018-03-30T01:08:22.262Z,17.64
2018-03-30T01:10:48.226Z,17.66
2018-03-30T01:13:14.195Z,17.58
2018-03-30T01:15:40.170Z,17.52
2018-03-30T01:18:06.132Z,17.52
2018-03-30T01:20:32.109Z,17.58
2018-03-30T01:22:58.090Z,17.58
2018-03-30T01:25:24.122Z,17.65
2018-03-30T01:27:50.127Z,17.77
2018-03-30T01:30:16.178Z,17.73
2018-03-30T01:32:42.183Z,17.59
2018-03-30T01:35:08.163Z,17.72
2018-03-30T01:37:34.178Z,17.72
2018-03-30T01:40:00.156Z,17.72
2018-03-30T01:42:26.134Z,17.71
2018-03-30T01:44:52.109Z,17.59
2018-03-30T01:47:18.122Z,17.57
2018-03-30T01:49:44.091Z,17.60
2018-03-30T01:52:10.110Z,17.67
2018-03-30T01:54:36.075Z,17.73
2018-03-30T01:57:02.046Z,17.70
2018-03-30T01:59:28.016Z,17.71
2018-03-30T02:01:54.007Z,17.65
2018-03-30T02:04:19.974Z,17.57
2018-03-30T02:06:45.971Z,17.59
2018-03-30T02:09:11.952Z,17.55
2018-03-30T02:11:37.929Z,17.55
2018-03-30T02:14:03.907Z,17.58
2018-03-30T02:16:29.888Z,17.55
2018-03-30T02:18:55.864Z,17.55
2018-03-30T02:21:21.835Z,17.57
2018-03-30T02:23:47.810Z,17.55
2018-03-30T02:26:13.911Z,17.43
2018-03-30T02:28:39.900Z,17.53
2018-03-30T02:31:05.910Z,17.61
2018-03-30T02:33:31.892Z,17.44
2018-03-30T02:35:57.867Z,17.59
2018-03-30T02:38:23.917Z,17.44
2018-03-30T02:40:49.885Z,17.47
2018-03-30T02:43:15.855Z,17.53
2018-03-30T02:45:41.830Z,17.54
2018-03-30T02:48:07.847Z,17.57
2018-03-30T02:50:33.819Z,17.45
2018-03-30T02:52:59.802Z,17.57
2018-03-30T02:55:25.771Z,17.45
2018-03-30T02:57:51.755Z,17.48
2018-03-30T03:00:17.732Z,17.53
2018-03-30T03:02:43.703Z,17.50
2018-03-30T03:05:09.721Z,17.56
2018-03-30T03:07:35.704Z,17.70
2018-03-30T03:10:01.674Z,17.59
2018-03-30T03:12:27.643Z,17.39
2018-03-30T03:14:53.623Z,17.34
2018-03-30T03:17:19.589Z,17.50
2018-03-30T03:19:45.557Z,17.54
2018-03-30T03:22:11.527Z,17.50
2018-03-30T03:24:37.524Z,17.55
2018-03-30T03:27:03.535Z,17.45
2018-03-30T03:29:29.516Z,17.44
2018-03-30T03:31:55.569Z,17.53
2018-03-30T03:34:21.538Z,17.57
2018-03-30T03:36:47.512Z,17.50
2018-03-30T03:39:13.553Z,17.53
2018-03-30T03:41:39.577Z,17.50
2018-03-30T03:44:05.550Z,17.50
2018-03-30T03:46:36.568Z,17.42
2018-03-30T03:49:02.546Z,17.29
2018-03-30T03:51:28.518Z,17.38
2018-03-30T03:53:54.499Z,17.52
2018-03-30T03:56:20.474Z,17.56
2018-03-30T03:58:46.443Z,17.53
2018-03-30T04:01:12.415Z,17.56
2018-03-30T04:03:38.386Z,17.57
2018-03-30T04:06:05.009Z,17.48
2018-03-30T04:08:31.003Z,17.48
2018-03-30T04:10:56.975Z,17.48
2018-03-30T04:13:22.991Z,17.46
2018-03-30T04:15:48.962Z,17.46
2018-03-30T04:18:14.942Z,17.54
2018-03-30T04:20:40.911Z,17.35
2018-03-30T04:23:06.912Z,17.42
2018-03-30T04:25:32.937Z,17.38
2018-03-30T04:27:58.907Z,17.43
2018-03-30T04:30:24.915Z,17.42
2018-03-30T04:32:50.884Z,17.46
2018-03-30T04:35:16.856Z,17.39
2018-03-30T04:37:42.846Z,17.41
2018-03-30T04:40:08.818Z,17.34
2018-03-30T04:42:34.787Z,17.31
2018-03-30T04:45:00.791Z,17.23
2018-03-30T04:47:26.771Z,17.32
2018-03-30T04:49:52.741Z,17.35
2018-03-30T04:52:18.766Z,17.39
2018-03-30T04:54:44.983Z,17.36
2018-03-30T04:57:10.995Z,17.24
2018-03-30T04:59:36.970Z,17.19
2018-03-30T05:02:02.951Z,17.31
2018-03-30T05:04:28.928Z,17.23
2018-03-30T05:07:01.939Z,17.32
2018-03-30T05:09:27.908Z,17.37
2018-03-30T05:11:53.875Z,17.36
2018-03-30T05:14:19.904Z,17.28
2018-03-30T05:16:45.886Z,17.22
2018-03-30T05:19:11.858Z,17.29
2018-03-30T05:21:37.835Z,17.36
2018-03-30T05:24:03.810Z,17.29
2018-03-30T05:26:29.796Z,17.34
2018-03-30T05:28:55.806Z,17.34
2018-03-30T05:31:21.813Z,17.36
2018-03-30T05:33:47.790Z,17.33
2018-03-30T05:36:13.790Z,17.34
2018-03-30T05:38:39.767Z,17.31
2018-03-30T05:41:05.747Z,17.36
2018-03-30T05:43:31.715Z,17.28
2018-03-30T05:45:57.731Z,17.35
2018-03-30T05:48:23.739Z,17.20
2018-03-30T05:50:49.786Z,17.43
2018-03-30T05:53:15.753Z,17.43
2018-03-30T05:55:41.721Z,17.39
2018-03-30T05:58:07.694Z,17.51
2018-03-30T06:00:33.671Z,17.59
2018-03-30T06:02:59.826Z,17.53
2018-03-30T06:05:25.798Z,17.52
2018-03-30T06:07:51.774Z,17.53
2018-03-30T06:10:17.780Z,17.49
2018-03-30T06:12:43.754Z,17.70
2018-03-30T06:15:09.756Z,17.67
2018-03-30T06:17:35.765Z,17.56
2018-03-30T06:20:01.747Z,17.52
2018-03-30T06:22:27.722Z,17.60
2018-03-30T06:24:54.277Z,17.59
2018-03-30T06:27:20.273Z,17.56
2018-03-30T06:29:46.253Z,17.58
2018-03-30T06:32:12.256Z,17.62
2018-03-30T06:34:38.238Z,17.60
2018-03-30T06:37:04.254Z,17.53
2018-03-30T06:39:30.232Z,17.44
2018-03-30T06:41:56.209Z,17.39
2018-03-30T06:44:22.415Z,17.39
2018-03-30T06:46:52.067Z,17.38
2018-03-30T06:49:18.062Z,17.34
2018-03-30T06:51:44.062Z,17.41
2018-03-30T06:54:10.044Z,17.44
2018-03-30T06:56:36.011Z,17.51
2018-03-30T06:59:01.991Z,17.46
2018-03-30T07:01:27.958Z,17.57
2018-03-30T07:03:53.935Z,17.73
2018-03-30T07:06:20.056Z,17.67
2018-03-30T07:08:46.090Z,17.93
2018-03-30T07:11:12.062Z,17.87
2018-03-30T07:13:39.970Z,17.99
2018-03-30T07:16:06.105Z,17.99
2018-03-30T07:18:32.262Z,17.84
2018-03-30T07:20:58.449Z,17.88
2018-03-30T07:23:24.427Z,17.99
2018-03-30T07:25:50.440Z,17.88
2018-03-30T07:28:16.411Z,17.92
2018-03-30T07:30:42.448Z,17.74
2018-03-30T07:33:08.503Z,17.75
2018-03-30T07:35:34.519Z,17.81
2018-03-30T07:38:00.490Z,17.82
2018-03-30T07:40:26.531Z,17.74
2018-03-30T07:42:52.502Z,17.81
2018-03-30T07:45:18.473Z,17.82
2018-03-30T07:47:44.458Z,17.81
2018-03-30T07:50:10.503Z,17.79
2018-03-30T07:52:37.054Z,17.54
2018-03-30T07:55:03.032Z,17.58
2018-03-30T07:57:29.051Z,17.63
2018-03-30T07:59:55.034Z,17.66
2018-03-30T08:02:21.050Z,17.59
2018-03-30T08:04:47.903Z,17.69
2018-03-30T08:07:14.019Z,17.78
2018-03-30T08:09:44.976Z,17.79
2018-03-30T08:12:11.187Z,17.62
2018-03-30T08:14:37.414Z,17.72
2018-03-30T08:17:03.657Z,17.76
2018-03-30T08:19:29.879Z,17.78
2018-03-30T08:21:56.082Z,17.83
2018-03-30T08:24:23.133Z,17.60
2018-03-30T08:26:49.183Z,17.61
2018-03-30T08:29:15.259Z,17.70
2018-03-30T08:31:45.321Z,17.72
2018-03-30T08:34:11.421Z,17.75
2018-03-30T08:36:37.786Z,17.93
2018-03-30T08:39:04.036Z,17.94
2018-03-30T08:41:30.159Z,17.98
2018-03-30T08:43:56.303Z,17.98
2018-03-30T08:46:22.525Z,17.80
2018-03-30T08:48:48.659Z,17.75
2018-03-30T08:54:00.131Z,17.62
2018-03-30T08:56:26.107Z,17.63
2018-03-30T08:58:55.509Z,17.80
2018-03-30T09:01:21.486Z,17.72
2018-03-30T09:03:47.468Z,17.70
2018-03-30T09:06:13.477Z,17.69
2018-03-30T09:08:39.443Z,17.70
2018-03-30T09:11:05.410Z,17.91
2018-03-30T09:13:31.380Z,17.75
2018-03-30T09:15:57.351Z,17.81
2018-03-30T09:18:23.322Z,17.64
2018-03-30T09:20:49.290Z,17.73
2018-03-30T09:23:15.263Z,17.43
2018-03-30T09:25:41.242Z,16.99
2018-03-30T09:28:07.242Z,17.14
2018-03-30T09:30:33.223Z,17.24
2018-03-30T09:32:59.233Z,17.08
2018-03-30T09:35:25.281Z,17.32
2018-03-30T09:37:51.250Z,17.32
2018-03-30T09:40:17.229Z,17.59
2018-03-30T09:42:43.906Z,17.49
2018-03-30T09:45:09.930Z,17.59
2018-03-30T09:47:35.933Z,17.69
2018-03-30T09:50:01.898Z,17.63
2018-03-30T09:52:27.871Z,17.59
2018-03-30T09:54:53.832Z,17.62
2018-03-30T09:57:19.798Z,17.61
2018-03-30T09:59:45.762Z,17.61
2018-03-30T10:02:11.849Z,17.56
2018-03-30T10:04:43.743Z,17.68
2018-03-30T10:07:09.790Z,17.67
2018-03-30T10:09:35.814Z,17.54
2018-03-30T10:12:01.847Z,17.73
2018-03-30T10:14:27.824Z,17.79
2018-03-30T10:16:53.795Z,17.81
2018-03-30T10:19:19.787Z,17.84
2018-03-30T10:21:45.754Z,17.97
2018-03-30T10:24:11.730Z,18.01
2018-03-30T10:26:37.699Z,17.79
2018-03-30T10:29:03.668Z,17.88
2018-03-30T10:31:29.644Z,17.83
2018-03-30T10:33:55.611Z,17.96
2018-03-30T10:36:21.617Z,17.90
2018-03-30T10:38:47.587Z,17.99
2018-03-30T10:41:13.599Z,17.92
2018-03-30T10:43:39.636Z,17.85
2018-03-30T10:46:05.614Z,17.80
2018-03-30T10:48:31.587Z,17.73
2018-03-30T10:50:57.575Z,17.61
2018-03-30T10:53:23.659Z,17.74
2018-03-30T10:55:49.638Z,17.57
2018-03-30T10:58:15.607Z,17.60
2018-03-30T11:00:41.595Z,17.63
2018-03-30T11:03:07.649Z,17.55
2018-03-30T11:05:33.638Z,17.45
2018-03-30T11:07:59.619Z,17.69
2018-03-30T11:10:25.594Z,17.84
2018-03-30T11:12:51.608Z,17.97
2018-03-30T11:15:17.641Z,17.86
2018-03-30T11:17:43.628Z,17.87
2018-03-30T11:20:09.636Z,17.85
2018-03-30T11:22:35.609Z,17.81
2018-03-30T11:25:01.667Z,17.89
2018-03-30T11:27:27.735Z,17.94
2018-03-30T11:29:53.778Z,17.96
2018-03-30T11:32:19.754Z,17.92
2018-03-30T11:34:45.725Z,17.99
2018-03-30T11:37:11.736Z,17.97
2018-03-30T11:39:37.719Z,17.92
2018-03-30T11:42:03.743Z,17.91
2018-03-30T11:44:29.772Z,17.91
2018-03-30T11:46:55.785Z,17.96
2018-03-30T11:49:21.799Z,17.95
2018-03-30T11:51:47.759Z,18.06
2018-03-30T11:54:13.775Z,17.98
2018-03-30T11:56:39.768Z,18.09
2018-03-30T11:59:05.737Z,17.99
2018-03-30T12:01:31.711Z,18.03
2018-03-30T12:03:57.735Z,18.02
2018-03-30T12:06:23.704Z,17.95
2018-03-30T12:08:49.848Z,17.99
2018-03-30T12:11:16.858Z,17.92
2018-03-30T12:13:42.935Z,17.90
2018-03-30T12:16:09.020Z,17.97
2018-03-30T12:18:36.198Z,17.93
2018-03-30T12:21:02.211Z,17.96
2018-03-30T12:23:31.481Z,17.94
2018-03-30T12:25:58.375Z,17.91
2018-03-30T12:28:24.342Z,17.97
2018-03-30T12:30:50.352Z,18.05
2018-03-30T12:33:16.327Z,17.92
2018-03-30T12:35:42.341Z,17.88
2018-03-30T12:38:08.355Z,17.89
2018-03-30T12:40:34.336Z,17.99
2018-03-30T12:43:00.324Z,17.93
2018-03-30T12:45:26.293Z,17.92
2018-03-30T12:47:52.272Z,17.89
2018-03-30T12:50:18.252Z,17.94
2018-03-30T12:52:44.236Z,17.95
2018-03-30T12:55:10.208Z,17.91
2018-03-30T12:57:36.199Z,17.87
2018-03-30T13:00:02.212Z,17.81
2018-03-30T13:02:28.203Z,17.97
2018-03-30T13:04:54.182Z,17.92
2018-03-30T13:07:20.155Z,17.88
2018-03-30T13:09:46.136Z,17.90
2018-03-30T13:12:12.115Z,17.85
2018-03-30T13:14:38.086Z,17.86
2018-03-30T13:17:04.090Z,17.84
2018-03-30T13:19:30.098Z,17.91
2018-03-30T13:21:57.217Z,17.92
2018-03-30T13:24:23.202Z,17.95
2018-03-30T13:26:49.294Z,17.97
2018-03-30T13:29:15.331Z,17.91
2018-03-30T13:31:41.298Z,17.90
2018-03-30T13:34:07.272Z,17.93
2018-03-30T13:36:33.251Z,17.91
2018-03-30T13:38:59.227Z,18.10
2018-03-30T13:41:25.252Z,18.23
2018-03-30T13:43:51.222Z,18.29
2018-03-30T13:46:17.241Z,18.19
2018-03-30T13:48:43.215Z,18.18
2018-03-30T13:51:18.379Z,18.20
2018-03-30T13:53:45.396Z,18.20
2018-03-30T13:56:11.456Z,18.05
2018-03-30T13:58:41.221Z,18.05
2018-03-30T14:01:10.294Z,18.01
2018-03-30T14:03:39.128Z,17.99
2018-03-30T14:06:08.132Z,17.99
2018-03-30T14:08:35.140Z,18.00
2018-03-30T14:11:06.019Z,18.04
2018-03-30T14:13:32.035Z,17.98
2018-03-30T14:15:59.090Z,18.03
2018-03-30T14:18:30.034Z,18.07
2018-03-30T14:20:57.959Z,17.96
2018-03-30T14:23:24.920Z,18.04
2018-03-30T14:26:02.732Z,17.97
2018-03-30T14:28:31.547Z,17.86
2018-03-30T14:33:50.014Z,17.78
2018-03-30T14:36:32.862Z,17.91
2018-03-30T14:39:14.707Z,17.91
2018-03-30T14:41:40.678Z,17.86
2018-03-30T14:44:09.656Z,17.97
2018-03-30T14:46:37.523Z,17.96
2018-03-30T14:49:03.539Z,18.03
2018-03-30T14:51:35.407Z,18.04
2018-03-30T14:54:01.470Z,18.00
2018-03-30T14:56:33.593Z,18.02
2018-03-30T15:01:52.959Z,17.78
2018-03-30T15:04:39.720Z,17.83
2018-03-30T15:07:05.736Z,17.78
2018-03-30T15:09:47.427Z,17.94
2018-03-30T15:12:13.442Z,17.93
2018-03-30T15:14:40.511Z,18.05
2018-03-30T15:20:06.935Z,17.93
2018-03-30T15:22:36.969Z,18.05
2018-03-30T15:25:03.856Z,18.01
2018-03-30T15:27:29.920Z,18.11
2018-03-30T15:29:57.868Z,18.23
2018-03-30T15:32:31.043Z,18.00
2018-03-30T15:34:57.092Z,17.99
2018-03-30T15:37:23.104Z,18.12
2018-03-30T15:39:55.170Z,18.21
2018-03-30T15:42:22.977Z,18.03
2018-03-30T15:44:49.020Z,18.02
2018-03-30T15:47:16.006Z,18.13
2018-03-30T15:49:42.018Z,18.15
2018-03-30T15:52:08.082Z,18.09
2018-03-30T15:54:34.105Z,18.02
2018-03-30T15:57:00.135Z,18.04
2018-03-30T15:59:26.186Z,18.17
2018-03-30T16:01:53.054Z,18.27
2018-03-30T16:04:19.076Z,18.43
2018-03-30T16:06:45.134Z,18.19
2018-03-30T16:09:11.959Z,18.41
2018-03-30T16:11:37.982Z,18.28
2018-03-30T16:14:03.956Z,18.28
2018-03-30T16:16:29.932Z,18.27
2018-03-30T16:18:55.820Z,18.23
2018-03-30T16:21:21.688Z,18.30
2018-03-30T16:23:47.602Z,18.14
2018-03-30T16:26:13.462Z,18.17
2018-03-30T16:28:39.333Z,18.25
2018-03-30T16:31:05.204Z,18.07
2018-03-30T16:33:31.074Z,18.10
2018-03-30T16:35:56.936Z,18.05
2018-03-30T16:38:22.796Z,18.09
2018-03-30T16:40:48.655Z,18.06
2018-03-30T16:43:14.515Z,18.01
2018-03-30T16:45:40.379Z,17.95
2018-03-30T16:48:06.234Z,18.12
2018-03-30T16:50:32.096Z,18.09
2018-03-30T16:52:57.962Z,18.02
2018-03-30T16:55:23.859Z,18.00
2018-03-30T16:57:49.764Z,17.94
2018-03-30T17:00:23.673Z,17.87
2018-03-30T17:02:49.986Z,17.90
2018-03-30T17:05:15.996Z,17.85
2018-03-30T17:07:42.172Z,17.91
2018-03-30T17:10:09.280Z,17.94
2018-03-30T17:12:35.647Z,18.01
2018-03-30T17:15:01.752Z,17.94
2018-03-30T17:17:27.647Z,17.89
2018-03-30T17:19:53.691Z,17.87
2018-03-30T17:22:19.666Z,17.88
2018-03-30T17:24:45.673Z,17.88
2018-03-30T17:27:11.801Z,17.85
2018-03-30T17:29:39.183Z,17.86
2018-03-30T17:32:05.044Z,17.90
2018-03-30T17:34:30.955Z,17.88
2018-03-30T17:36:56.808Z,17.86
2018-03-30T17:39:22.714Z,17.82
2018-03-30T17:41:48.634Z,17.95
2018-03-30T17:44:14.495Z,17.83
2018-03-30T17:46:40.507Z,17.92
2018-03-30T17:49:06.363Z,17.95
2018-03-30T17:51:32.270Z,17.89
2018-03-30T17:53:58.130Z,17.84
2018-03-30T17:56:24.099Z,17.86
2018-03-30T17:58:49.964Z,17.91
2018-03-30T18:01:15.863Z,17.89
2018-03-30T18:03:41.791Z,17.93
2018-03-30T18:06:07.662Z,17.95
2018-03-30T18:08:33.601Z,17.99
2018-03-30T18:10:59.591Z,17.90
2018-03-30T18:13:25.478Z,17.92
2018-03-30T18:15:51.510Z,17.89
2018-03-30T18:18:17.614Z,17.83
2018-03-30T18:20:43.522Z,18.01
2018-03-30T18:23:09.730Z,17.85
2018-03-30T18:25:35.927Z,17.89
2018-03-30T18:28:02.233Z,17.85
2018-03-30T18:30:28.332Z,17.99
2018-03-30T18:32:54.473Z,17.84
2018-03-30T18:35:21.514Z,17.96
2018-03-30T18:37:47.728Z,17.93
2018-03-30T18:40:14.012Z,17.80
2018-03-30T18:42:40.258Z,17.95
2018-03-30T18:45:06.530Z,17.86
2018-03-30T18:47:32.924Z,17.72
2018-03-30T18:49:59.189Z,17.88
2018-03-30T18:52:26.203Z,17.95
2018-03-30T18:54:52.450Z,17.87
2018-03-30T18:57:18.786Z,17.83
2018-03-30T18:59:45.042Z,17.89
2018-03-30T19:02:11.963Z,17.88
2018-03-30T19:04:38.327Z,17.91
2018-03-30T19:07:04.585Z,17.90
2018-03-30T19:09:30.964Z,17.85
2018-03-30T19:11:57.230Z,17.80
2018-03-30T19:14:24.320Z,17.87
2018-03-30T19:16:51.719Z,17.89
2018-03-30T19:19:17.989Z,17.87
2018-03-30T19:21:44.243Z,17.83
2018-03-30T19:24:11.159Z,17.89
2018-03-30T19:26:37.637Z,17.87
2018-03-30T19:29:07.586Z,17.84
2018-03-30T19:31:33.934Z,17.90
2018-03-30T19:34:00.533Z,17.86
2018-03-30T19:36:27.286Z,17.88
2018-03-30T19:38:54.808Z,17.84
2018-03-30T19:41:22.786Z,17.78
2018-03-30T19:43:49.202Z,17.95
2018-03-30T19:46:16.812Z,17.81
2018-03-30T19:48:44.223Z,17.91
2018-03-30T19:51:14.022Z,17.89
2018-03-30T19:53:40.458Z,17.87
2018-03-30T19:56:20.315Z,17.87
2018-03-30T19:58:46.662Z,17.74
2018-03-30T20:01:18.708Z,17.78
2018-03-30T20:03:45.071Z,17.71
2018-03-30T20:06:12.290Z,17.71
2018-03-30T20:08:38.578Z,17.81
2018-03-30T20:11:04.992Z,17.89
2018-03-30T20:13:31.434Z,17.98
2018-03-30T20:15:57.665Z,17.80
2018-03-30T20:18:24.055Z,17.80
2018-03-30T20:20:50.331Z,17.88
2018-03-30T20:23:22.933Z,18.02
2018-03-30T20:25:51.435Z,17.92
2018-03-30T20:31:05.752Z,17.72
2018-03-30T20:33:32.175Z,17.65
2018-03-30T20:35:58.311Z,17.81
2018-03-30T20:38:24.511Z,17.75
2018-03-30T20:40:50.715Z,17.77
2018-03-30T20:43:16.960Z,17.75
2018-03-30T20:45:44.532Z,17.80
2018-03-30T20:48:14.411Z,17.71
2018-03-30T20:50:40.936Z,17.68
2018-03-30T20:53:07.100Z,17.72
2018-03-30T20:55:33.438Z,17.65
2018-03-30T20:57:59.311Z,17.71
2018-03-30T21:00:25.204Z,17.76
2018-03-30T21:02:51.072Z,17.54
2018-03-30T21:05:17.017Z,17.73
2018-03-30T21:07:42.929Z,17.60
2018-03-30T21:10:08.860Z,17.81
2018-03-30T21:12:34.722Z,17.71
2018-03-30T21:15:00.598Z,17.58
2018-03-30T21:17:26.473Z,17.69
2018-03-30T21:19:52.363Z,17.69
2018-03-30T21:22:18.218Z,17.66
2018-03-30T21:24:44.068Z,17.57
2018-03-30T21:27:09.995Z,17.62
2018-03-30T21:29:35.855Z,17.53
2018-03-30T21:32:01.722Z,17.56
2018-03-30T21:37:13.107Z,17.52
2018-03-30T21:39:38.987Z,17.55
2018-03-30T21:42:04.835Z,17.62
2018-03-30T21:44:30.690Z,17.58
2018-03-30T21:46:56.675Z,17.60
2018-03-30T21:49:22.523Z,17.70
2018-03-30T21:51:48.418Z,17.81
2018-03-30T21:54:14.274Z,17.71
2018-03-30T21:56:40.136Z,17.76
2018-03-30T21:59:06.022Z,17.81
2018-03-30T22:01:31.880Z,17.72
2018-03-30T22:03:57.776Z,17.72
2018-03-30T22:06:23.630Z,17.62
2018-03-30T22:08:49.527Z,17.81
2018-03-30T22:13:47.860Z,17.68
2018-03-30T22:16:13.715Z,17.56
2018-03-30T22:18:39.607Z,17.75
2018-03-30T22:21:05.462Z,17.63
2018-03-30T22:23:31.404Z,17.64
2018-03-30T22:25:57.256Z,17.57
2018-03-30T22:28:23.154Z,17.63
2018-03-30T22:30:49.175Z,17.61
2018-03-30T22:33:15.072Z,17.59
2018-03-30T22:35:40.932Z,17.53
2018-03-30T22:38:06.876Z,17.62
2018-03-30T22:40:32.722Z,17.65
2018-03-30T22:42:58.646Z,17.55
2018-03-30T22:45:24.503Z,17.58
2018-03-30T22:47:50.365Z,17.50
2018-03-30T22:50:16.288Z,17.60
2018-03-30T22:52:42.187Z,17.52
2018-03-30T22:55:08.042Z,17.48
2018-03-30T22:57:33.894Z,17.45
2018-03-30T22:59:59.746Z,17.47
2018-03-30T23:02:25.594Z,17.48
2018-03-30T23:04:51.445Z,17.42
2018-03-30T23:07:17.351Z,17.43
2018-03-30T23:09:43.217Z,17.40
2018-03-30T23:12:09.071Z,17.48
2018-03-30T23:14:36.174Z,17.50
2018-03-30T23:17:02.036Z,17.40
2018-03-30T23:19:27.888Z,17.39
2018-03-30T23:21:53.736Z,17.39
2018-03-30T23:24:19.630Z,17.40
2018-03-30T23:26:45.515Z,17.40
2018-03-30T23:29:11.366Z,17.46
2018-03-30T23:31:37.214Z,17.49
2018-03-30T23:34:03.109Z,17.51
2018-03-30T23:36:29.011Z,17.42
2018-03-30T23:38:54.949Z,17.32
2018-03-30T23:41:20.838Z,17.42
2018-03-30T23:43:46.699Z,17.45
2018-03-30T23:46:12.571Z,17.38
2018-03-30T23:48:38.419Z,17.41
2018-03-30T23:51:04.266Z,17.41
2018-03-30T23:53:30.114Z,17.34
2018-03-30T23:55:55.977Z,17.27
2018-03-30T23:58:21.822Z,17.34
